Time;durP1;ratioP1;P1;durP2;ratioP2;P2;SDS_P1;SDS_P2;PMS_P1;PMS_P2;Temp;Humidity;BMP_temperature;BMP_pressure;BME280_temperature;BME280_humidity;BME280_pressure;Samples;Min_cycle;Max_cycle;Signal;HPM_P1;HPM_P2
2021/06/26 00:00:45;;;;;;;343.50;150.82;;;;;;;16.89;95.30;98237.13;5078616;28;20228;-73
2021/06/26 00:03:11;;;;;;;290.10;122.00;;;;;;;16.84;95.19;98236.56;5074448;28;20229;-73
2021/06/26 00:05:38;;;;;;;277.08;117.63;;;;;;;16.74;95.55;98243.31;5078456;28;20918;-73
2021/06/26 00:08:05;;;;;;;279.90;121.57;;;;;;;16.87;94.54;98243.41;5077459;28;20232;-73
2021/06/26 00:10:33;;;;;;;278.40;116.35;;;;;;;17.16;92.54;98249.50;5079025;28;20247;-74
2021/06/26 00:13:00;;;;;;;270.33;112.10;;;;;;;17.30;93.86;98251.25;5077346;28;20213;-73
2021/06/26 00:15:26;;;;;;;295.13;118.22;;;;;;;17.26;93.03;98245.34;5077219;28;20741;-73
2021/06/26 00:17:53;;;;;;;274.13;111.07;;;;;;;16.88;94.64;98240.69;5079606;28;20221;-73
2021/06/26 00:20:19;;;;;;;293.45;115.95;;;;;;;17.00;94.06;98236.47;5078523;28;20240;-73
2021/06/26 00:22:46;;;;;;;285.63;114.00;;;;;;;16.81;93.18;98235.88;5077904;28;20212;-73
2021/06/26 00:25:13;;;;;;;289.17;113.07;;;;;;;16.56;94.08;98240.06;5076309;28;20870;-72
2021/06/26 00:27:41;;;;;;;276.83;110.45;;;;;;;16.62;94.00;98237.03;5078558;28;20208;-73
2021/06/26 00:30:08;;;;;;;273.30;114.82;;;;;;;16.58;94.30;98243.44;5077110;28;20225;-73
2021/06/26 00:32:35;;;;;;;277.98;114.55;;;;;;;16.62;94.05;98247.56;5077251;28;20211;-74
2021/06/26 00:35:02;;;;;;;287.45;113.15;;;;;;;16.69;93.16;98246.25;5077970;28;20239;-73
2021/06/26 00:37:28;;;;;;;275.42;115.63;;;;;;;16.74;92.78;98251.22;5078596;28;20748;-74
2021/06/26 00:39:55;;;;;;;287.40;112.03;;;;;;;17.00;94.40;98254.03;5078786;28;20216;-73
2021/06/26 00:42:22;;;;;;;288.98;115.85;;;;;;;16.98;93.50;98256.75;5076636;28;20237;-73
2021/06/26 00:44:50;;;;;;;261.10;109.50;;;;;;;16.84;93.44;98259.44;5078240;28;20779;-73
2021/06/26 00:47:16;;;;;;;270.85;111.82;;;;;;;16.52;93.65;98260.47;5078748;28;20873;-73
2021/06/26 00:49:43;;;;;;;295.55;116.03;;;;;;;16.41;94.14;98264.66;5079470;28;20212;-73
2021/06/26 00:52:10;;;;;;;273.98;112.82;;;;;;;16.33;94.28;98265.97;5077538;28;20233;-73
2021/06/26 00:54:36;;;;;;;283.13;109.75;;;;;;;16.45;96.59;98259.13;5076583;28;20239;-73
2021/06/26 00:57:04;;;;;;;288.10;111.40;;;;;;;16.40;96.40;98255.09;5076690;28;20233;-73
2021/06/26 00:59:30;;;;;;;290.80;114.50;;;;;;;16.37;94.40;98262.22;5076505;28;20219;-73
2021/06/26 01:01:58;;;;;;;287.90;114.45;;;;;;;16.47;95.29;98261.66;5078088;28;20233;-73
2021/06/26 01:04:25;;;;;;;298.00;115.72;;;;;;;16.55;93.37;98246.25;5078609;28;20236;-73
2021/06/26 01:06:51;;;;;;;284.33;110.80;;;;;;;17.02;97.32;98244.25;5075109;28;20228;-73
2021/06/26 01:09:18;;;;;;;285.80;115.03;;;;;;;17.20;94.81;98236.97;5077712;28;20212;-73
2021/06/26 01:11:44;;;;;;;279.17;111.55;;;;;;;17.13;91.38;98242.63;5076815;28;20237;-73
2021/06/26 01:14:11;;;;;;;284.13;111.85;;;;;;;17.41;93.47;98238.22;5079029;28;20232;-73
2021/06/26 01:16:37;;;;;;;262.77;110.60;;;;;;;17.10;89.89;98250.72;5073533;28;20252;-73
2021/06/26 01:19:05;;;;;;;303.67;118.07;;;;;;;16.39;91.41;98243.69;5075789;28;20216;-73
2021/06/26 01:21:35;;;;;;;323.50;119.30;;;;;;;16.28;92.19;98239.06;5077601;28;20247;-73
2021/06/26 01:24:03;;;;;;;304.77;131.02;;;;;;;16.21;92.82;98237.78;5077005;28;20325;-73
2021/06/26 01:26:34;;;;;;;305.52;117.40;;;;;;;16.06;93.24;98231.63;5077493;28;20241;-73
2021/06/26 01:29:01;;;;;;;289.55;113.82;;;;;;;15.95;93.09;98240.19;5078605;28;20600;-73
2021/06/26 01:31:28;;;;;;;290.95;113.88;;;;;;;15.94;93.27;98238.47;5076851;28;20237;-73
2021/06/26 01:33:54;;;;;;;300.30;114.63;;;;;;;15.99;93.84;98236.44;5076563;28;20244;-73
2021/06/26 01:36:21;;;;;;;283.23;108.32;;;;;;;16.34;95.08;98243.16;5076886;28;20256;-73
2021/06/26 01:38:54;;;;;;;276.85;109.65;;;;;;;16.60;95.63;98235.41;5076822;28;20224;-73
2021/06/26 01:41:22;;;;;;;275.60;111.88;;;;;;;16.81;94.41;98233.25;5075405;28;20232;-73
2021/06/26 01:43:48;;;;;;;277.88;108.07;;;;;;;17.26;94.94;98239.19;5077073;28;20248;-73
2021/06/26 01:46:15;;;;;;;290.58;109.50;;;;;;;17.47;93.25;98236.97;5076852;28;21022;-73
2021/06/26 01:48:41;;;;;;;268.10;105.35;;;;;;;17.34;92.05;98227.22;5076052;28;20296;-73
2021/06/26 01:51:08;;;;;;;275.95;109.63;;;;;;;17.57;91.13;98229.28;5075162;28;20243;-73
2021/06/26 01:53:35;;;;;;;285.15;113.03;;;;;;;17.39;90.43;98228.69;5077021;28;20770;-73
2021/06/26 01:56:01;;;;;;;296.60;115.22;;;;;;;17.15;90.86;98230.19;5075947;28;20240;-73
2021/06/26 01:58:29;;;;;;;318.48;120.53;;;;;;;16.86;88.92;98221.50;5073467;28;20247;-73
2021/06/26 02:00:56;;;;;;;299.52;114.82;;;;;;;16.63;88.33;98220.28;5077166;28;20247;-73
2021/06/26 02:03:22;;;;;;;290.15;114.40;;;;;;;16.46;89.72;98226.59;5077222;28;20240;-73
2021/06/26 02:05:49;;;;;;;283.65;110.90;;;;;;;16.74;91.26;98217.84;5073447;28;20244;-73
2021/06/26 02:08:16;;;;;;;269.73;108.97;;;;;;;17.24;92.58;98214.72;5076002;28;20201;-73
2021/06/26 02:10:42;;;;;;;278.40;110.63;;;;;;;16.82;90.15;98213.84;5076002;28;20732;-73
2021/06/26 02:13:09;;;;;;;273.83;111.15;;;;;;;16.46;92.75;98212.59;5076538;28;20205;-73
2021/06/26 02:15:36;;;;;;;282.30;111.55;;;;;;;16.43;92.51;98218.03;5074370;28;20236;-73
2021/06/26 02:18:03;;;;;;;281.13;110.75;;;;;;;16.34;93.11;98225.56;5072984;28;20212;-73
2021/06/26 02:20:29;;;;;;;272.30;109.15;;;;;;;16.57;95.03;98215.41;5075530;28;20275;-73
2021/06/26 02:22:56;;;;;;;279.45;108.95;;;;;;;17.36;92.71;98216.56;5077678;28;20209;-73
2021/06/26 02:25:22;;;;;;;281.45;111.07;;;;;;;17.09;93.32;98227.97;5076292;28;20275;-74
2021/06/26 02:27:49;;;;;;;280.65;108.93;;;;;;;16.88;92.87;98224.88;5075654;28;20213;-73
2021/06/26 02:30:16;;;;;;;269.33;107.35;;;;;;;16.68;92.21;98223.47;5075565;28;20221;-73
2021/06/26 02:32:44;;;;;;;284.58;108.95;;;;;;;16.75;91.64;98226.56;5075798;28;20256;-73
2021/06/26 02:35:11;;;;;;;272.83;113.40;;;;;;;16.59;92.08;98229.31;5076663;28;20237;-72
2021/06/26 02:37:38;;;;;;;282.00;115.93;;;;;;;16.30;92.11;98231.97;5078146;28;20216;-73
2021/06/26 02:40:06;;;;;;;284.95;113.03;;;;;;;16.21;92.69;98240.41;5074099;28;20308;-72
2021/06/26 02:42:33;;;;;;;285.08;116.38;;;;;;;16.11;93.45;98234.00;5076124;28;20225;-73
2021/06/26 02:46:34;;;;;;;283.48;109.38;;;;;;;16.21;94.15;98235.16;5113253;27;20576;-76
2021/06/26 02:49:00;;;;;;;283.83;104.75;;;;;;;16.84;94.31;98226.03;5098647;28;20219;-75
2021/06/26 02:51:27;;;;;;;298.95;109.82;;;;;;;16.75;93.87;98230.06;5093204;28;20240;-74
2021/06/26 02:53:53;;;;;;;267.52;106.03;;;;;;;17.20;92.53;98229.88;5085167;28;20244;-75
2021/06/26 02:56:20;;;;;;;285.00;111.50;;;;;;;16.72;91.41;98230.22;5065086;28;20848;-74
2021/06/26 02:58:46;;;;;;;270.77;107.28;;;;;;;16.38;93.34;98232.31;5065400;28;20216;-74
2021/06/26 03:01:13;;;;;;;284.92;106.78;;;;;;;17.08;93.13;98226.25;5065136;28;20236;-74
2021/06/26 03:03:41;;;;;;;270.70;107.22;;;;;;;17.53;90.98;98224.22;5061462;28;20320;-74
2021/06/26 03:06:08;;;;;;;278.05;111.85;;;;;;;17.40;89.67;98225.13;5062868;28;20251;-75
2021/06/26 03:08:34;;;;;;;266.17;106.32;;;;;;;17.49;90.49;98224.53;5066200;28;20205;-74
2021/06/26 03:11:01;;;;;;;295.20;114.07;;;;;;;17.43;91.23;98231.03;5065116;28;20238;-74
2021/06/26 03:13:28;;;;;;;282.27;113.85;;;;;;;17.59;89.75;98224.75;5064503;28;20238;-74
2021/06/26 03:15:54;;;;;;;293.00;117.70;;;;;;;17.15;90.14;98224.94;5061765;28;20613;-74
2021/06/26 03:18:21;;;;;;;285.05;123.00;;;;;;;16.89;91.37;98231.00;5066176;28;20213;-74
2021/06/26 03:20:48;;;;;;;285.42;120.20;;;;;;;16.68;93.13;98228.75;5066621;28;20248;-74
2021/06/26 03:23:15;;;;;;;288.13;118.88;;;;;;;16.58;93.41;98232.91;5065958;28;20221;-74
2021/06/26 03:25:41;;;;;;;275.70;120.03;;;;;;;16.60;93.97;98225.75;5064384;28;20248;-74
2021/06/26 03:28:08;;;;;;;280.48;121.20;;;;;;;16.58;94.79;98232.91;5067077;28;20224;-74
2021/06/26 03:30:35;;;;;;;283.70;116.90;;;;;;;16.52;94.98;98238.53;5063493;28;20610;-72
2021/06/26 03:33:02;;;;;;;288.55;118.40;;;;;;;16.49;95.85;98233.47;5064170;28;20585;-72
2021/06/26 03:35:28;;;;;;;289.20;116.07;;;;;;;16.95;94.66;98225.38;5063027;28;20245;-72
2021/06/26 03:37:56;;;;;;;286.50;115.70;;;;;;;17.46;92.42;98230.84;5067306;28;20618;-73
2021/06/26 03:40:22;;;;;;;284.27;117.70;;;;;;;17.74;90.73;98223.75;5062581;28;22149;-72
2021/06/26 03:42:49;;;;;;;289.50;120.28;;;;;;;17.96;88.93;98223.19;5064774;28;20217;-72
2021/06/26 03:45:16;;;;;;;293.35;120.82;;;;;;;17.56;89.91;98224.97;5063457;28;20242;-72
2021/06/26 03:47:42;;;;;;;258.35;118.57;;;;;;;17.39;90.56;98234.84;5064548;28;20218;-72
2021/06/26 03:50:10;;;;;;;291.33;135.18;;;;;;;16.93;93.27;98229.88;5063943;28;20214;-71
2021/06/26 03:52:36;;;;;;;296.70;131.68;;;;;;;16.83;94.62;98234.03;5064757;28;20225;-72
2021/06/26 03:55:05;;;;;;;287.08;126.97;;;;;;;16.90;94.70;98235.34;5062856;28;20239;-73
2021/06/26 03:57:31;;;;;;;287.95;125.78;;;;;;;17.01;94.69;98240.78;5051768;28;20249;-73
2021/06/26 03:59:58;;;;;;;285.30;125.95;;;;;;;16.83;95.31;98236.66;5050638;28;20718;-73
2021/06/26 04:02:24;;;;;;;277.80;120.43;;;;;;;16.93;94.87;98243.06;5051476;28;20247;-73
2021/06/26 04:04:51;;;;;;;290.70;124.75;;;;;;;16.84;95.68;98243.63;5051193;28;21145;-72
2021/06/26 04:07:17;;;;;;;293.92;128.75;;;;;;;16.82;96.51;98238.44;5047972;28;20237;-73
2021/06/26 04:09:44;;;;;;;278.75;119.00;;;;;;;17.00;95.83;98236.47;5049667;28;20213;-73
2021/06/26 04:12:12;;;;;;;282.90;127.25;;;;;;;17.27;93.83;98247.00;5046036;28;20242;-73
2021/06/26 04:14:39;;;;;;;267.25;118.88;;;;;;;17.24;93.34;98246.34;5050986;28;20237;-73
2021/06/26 04:17:06;;;;;;;284.52;121.68;;;;;;;17.05;94.74;98252.81;5048857;28;20242;-73
2021/06/26 04:19:32;;;;;;;295.30;127.20;;;;;;;17.17;92.46;98252.97;5050356;28;20228;-73
2021/06/26 04:21:59;;;;;;;292.92;122.53;;;;;;;17.14;93.97;98256.66;5049039;28;20249;-73
2021/06/26 04:24:26;;;;;;;277.17;122.70;;;;;;;17.30;93.15;98253.88;5049736;28;20234;-73
2021/06/26 04:26:52;;;;;;;286.10;119.88;;;;;;;17.97;90.92;98258.34;5049897;28;20245;-73
2021/06/26 04:29:21;;;;;;;279.48;121.60;;;;;;;18.36;87.64;98251.28;5051853;28;20222;-73
2021/06/26 04:31:48;;;;;;;295.08;124.93;;;;;;;18.59;86.68;98253.19;5050077;28;20233;-73
2021/06/26 04:34:14;;;;;;;283.88;126.10;;;;;;;17.80;90.22;98249.72;5051813;28;20237;-73
2021/06/26 04:36:42;;;;;;;287.20;129.02;;;;;;;18.01;89.48;98249.25;5052314;28;20245;-73
2021/06/26 04:39:09;;;;;;;280.27;129.95;;;;;;;18.02;89.27;98243.03;5050820;28;20698;-74
2021/06/26 04:41:36;;;;;;;308.52;136.52;;;;;;;18.25;88.59;98247.59;5050450;28;20234;-73
2021/06/26 04:44:03;;;;;;;293.67;130.38;;;;;;;17.85;90.39;98254.72;5049280;28;20242;-74
2021/06/26 04:46:31;;;;;;;286.83;131.00;;;;;;;17.74;90.35;98255.41;5049820;28;20237;-74
2021/06/26 04:48:57;;;;;;;292.90;133.65;;;;;;;17.69;90.57;98257.50;5050356;28;20487;-74
2021/06/26 04:51:25;;;;;;;317.73;143.07;;;;;;;17.60;91.45;98253.66;5048516;28;20241;-73
2021/06/26 04:53:51;;;;;;;307.10;133.40;;;;;;;17.72;91.20;98257.31;5050410;28;20803;-73
2021/06/26 04:56:18;;;;;;;293.10;137.52;;;;;;;17.54;91.92;98257.56;5050016;28;20233;-73
2021/06/26 04:58:44;;;;;;;287.70;134.70;;;;;;;17.69;92.14;98254.84;5049608;28;20217;-73
2021/06/26 05:01:11;;;;;;;299.13;130.57;;;;;;;17.95;91.23;98252.31;5048020;28;20232;-74
2021/06/26 05:03:40;;;;;;;260.58;124.18;;;;;;;18.48;88.15;98248.63;5042965;28;20237;-73
2021/06/26 05:06:07;;;;;;;268.77;130.15;;;;;;;18.56;87.26;98245.47;5052068;28;20684;-73
2021/06/26 05:08:34;;;;;;;260.55;126.55;;;;;;;18.45;87.68;98243.59;5051717;28;20214;-73
2021/06/26 05:11:01;;;;;;;285.75;139.88;;;;;;;18.06;90.48;98250.63;5051769;28;20237;-73
2021/06/26 05:13:27;;;;;;;262.67;131.32;;;;;;;17.77;93.62;98249.06;5052111;28;20249;-73
2021/06/26 05:15:54;;;;;;;295.95;141.88;;;;;;;17.64;94.64;98243.75;5050882;28;20240;-74
2021/06/26 05:18:20;;;;;;;282.42;139.43;;;;;;;17.90;93.75;98242.91;5052414;28;20226;-73
2021/06/26 05:20:48;;;;;;;269.52;135.30;;;;;;;18.37;89.95;98242.41;5051453;28;20234;-73
2021/06/26 05:23:17;;;;;;;251.70;125.70;;;;;;;18.79;87.13;98237.72;5048759;28;20224;-73
2021/06/26 05:25:44;;;;;;;283.95;143.43;;;;;;;17.99;92.29;98237.97;5051314;28;20241;-73
2021/06/26 05:28:11;;;;;;;295.23;142.45;;;;;;;17.80;94.32;98239.16;5050094;28;20237;-73
2021/06/26 05:30:38;;;;;;;289.92;137.48;;;;;;;17.68;95.79;98240.84;5050784;28;20240;-73
2021/06/26 05:33:05;;;;;;;294.55;144.40;;;;;;;17.73;95.46;98244.00;5050473;28;20239;-73
2021/06/26 05:35:32;;;;;;;290.10;136.63;;;;;;;17.56;97.79;98246.91;5054371;28;20243;-73
2021/06/26 05:37:59;;;;;;;285.80;141.50;;;;;;;17.50;95.67;98253.44;5053960;28;20218;-73
2021/06/26 05:40:26;;;;;;;292.20;137.38;;;;;;;17.54;97.28;98254.09;5048132;28;20303;-73
2021/06/26 05:42:53;;;;;;;295.67;136.13;;;;;;;18.17;92.61;98257.00;5050232;28;20237;-73
2021/06/26 05:45:19;;;;;;;257.52;127.85;;;;;;;18.95;87.43;98259.50;5052901;28;20902;-73
2021/06/26 05:47:46;;;;;;;263.40;127.30;;;;;;;19.36;84.97;98258.31;5050224;28;20210;-73
2021/06/26 05:50:13;;;;;;;283.05;140.50;;;;;;;19.29;84.38;98262.34;5054739;28;20221;-72
2021/06/26 05:52:47;;;;;;;300.60;147.77;;;;;;;18.77;87.01;98255.50;5051467;28;20210;-73
2021/06/26 05:55:15;;;;;;;296.23;146.85;;;;;;;18.30;88.88;98258.66;5052057;28;20229;-73
2021/06/26 05:57:42;;;;;;;284.80;138.85;;;;;;;18.18;90.68;98259.53;5049284;28;20210;-73
2021/06/26 06:00:10;;;;;;;286.15;144.43;;;;;;;18.16;91.76;98257.94;5049783;28;20248;-73
2021/06/26 06:02:36;;;;;;;302.05;143.68;;;;;;;18.18;91.53;98267.44;5051656;28;20210;-73
2021/06/26 06:05:03;;;;;;;298.35;144.68;;;;;;;18.03;93.93;98263.19;5050792;28;20600;-73
2021/06/26 06:07:30;;;;;;;341.15;156.75;;;;;;;18.48;90.72;98261.00;5046441;28;20238;-73
2021/06/26 06:09:56;;;;;;;293.88;145.45;;;;;;;18.66;89.21;98256.25;5051065;28;20224;-73
2021/06/26 06:12:24;;;;;;;276.65;134.07;;;;;;;19.13;86.23;98252.03;5050025;28;20237;-73
2021/06/26 06:14:51;;;;;;;282.85;137.88;;;;;;;19.02;86.87;98260.75;5049368;28;20264;-73
2021/06/26 06:17:17;;;;;;;264.42;133.90;;;;;;;19.04;87.40;98258.84;5053100;28;20226;-73
2021/06/26 06:19:44;;;;;;;285.23;144.95;;;;;;;18.79;88.74;98258.88;5047147;28;20943;-73
2021/06/26 06:22:11;;;;;;;303.92;159.93;;;;;;;18.76;88.05;98261.72;5049743;28;20616;-73
2021/06/26 06:24:37;;;;;;;275.20;138.70;;;;;;;18.67;89.25;98266.72;5049791;28;20245;-74
2021/06/26 06:27:05;;;;;;;282.50;143.38;;;;;;;19.31;85.67;98270.19;5050673;28;20241;-75
2021/06/26 06:29:32;;;;;;;287.58;147.73;;;;;;;18.81;88.87;98273.69;5050139;28;20214;-75
2021/06/26 06:31:59;;;;;;;308.60;155.20;;;;;;;18.47;90.13;98275.16;5050598;28;20237;-74
2021/06/26 06:34:25;;;;;;;296.50;148.32;;;;;;;18.56;89.64;98285.09;5050404;28;20248;-73
2021/06/26 06:36:52;;;;;;;298.70;149.70;;;;;;;18.34;91.19;98279.59;5049088;28;20977;-73
2021/06/26 06:39:20;;;;;;;297.40;154.95;;;;;;;18.20;93.20;98289.31;5051071;28;20853;-73
2021/06/26 06:41:46;;;;;;;316.98;168.63;;;;;;;18.18;94.17;98293.84;5050319;28;20237;-74
2021/06/26 06:44:13;;;;;;;299.02;149.95;;;;;;;17.90;94.59;98297.47;5051908;28;20238;-73
2021/06/26 06:46:41;;;;;;;306.10;155.77;;;;;;;17.88;93.01;98299.38;5050226;28;20725;-74
2021/06/26 06:49:07;;;;;;;295.73;145.05;;;;;;;17.97;92.36;98306.66;5048708;28;20210;-74
2021/06/26 06:51:34;;;;;;;312.15;148.05;;;;;;;17.92;95.74;98307.00;5049677;28;20272;-73
2021/06/26 06:54:00;;;;;;;297.33;154.93;;;;;;;18.08;93.44;98300.69;5050337;28;20234;-73
2021/06/26 06:56:27;;;;;;;322.00;184.15;;;;;;;18.04;95.57;98302.69;5048049;28;20245;-73
2021/06/26 06:58:53;;;;;;;316.48;173.80;;;;;;;18.13;92.84;98303.88;5046016;28;20214;-73
2021/06/26 07:01:20;;;;;;;294.08;152.40;;;;;;;17.98;94.69;98304.91;5045121;28;20244;-73
2021/06/26 07:03:48;;;;;;;290.95;161.00;;;;;;;17.88;95.52;98297.59;5050765;28;20233;-75
2021/06/26 07:06:14;;;;;;;298.75;151.93;;;;;;;17.97;94.96;98290.84;5045321;28;20225;-73
2021/06/26 07:08:41;;;;;;;308.60;175.57;;;;;;;17.96;94.38;98296.22;5050620;28;20218;-74
2021/06/26 07:11:07;;;;;;;307.65;167.38;;;;;;;18.07;92.46;98299.00;5048141;28;21039;-72
2021/06/26 07:13:33;;;;;;;288.20;134.80;;;;;;;18.01;91.85;98291.47;5050215;28;20230;-73
2021/06/26 07:16:00;;;;;;;300.48;137.82;;;;;;;18.03;91.28;98303.66;5048577;28;20640;-73
2021/06/26 07:18:27;;;;;;;298.00;143.65;;;;;;;18.06;91.93;98298.13;5048616;28;20297;-72
2021/06/26 07:20:55;;;;;;;297.88;140.40;;;;;;;18.03;96.63;98294.84;5047511;28;20732;-72
2021/06/26 07:23:21;;;;;;;298.83;141.18;;;;;;;18.07;92.93;98299.00;5049990;28;20213;-72
2021/06/26 07:25:48;;;;;;;281.70;141.10;;;;;;;18.31;90.59;98301.78;5049632;28;20233;-72
2021/06/26 07:28:15;;;;;;;296.80;140.50;;;;;;;18.32;92.24;98292.91;5048488;28;20800;-72
2021/06/26 07:30:41;;;;;;;265.92;139.88;;;;;;;18.36;94.49;98286.47;5049438;28;20229;-71
2021/06/26 07:33:08;;;;;;;287.50;139.40;;;;;;;18.50;93.35;98293.44;5051001;28;20217;-73
2021/06/26 07:35:34;;;;;;;287.25;142.82;;;;;;;18.45;94.37;98292.91;5054646;28;20268;-73
2021/06/26 07:38:02;;;;;;;293.83;141.15;;;;;;;18.63;92.67;98294.28;5054216;28;20217;-73
2021/06/26 07:40:30;;;;;;;293.30;144.27;;;;;;;18.73;88.64;98293.63;5049757;28;20241;-73
2021/06/26 07:42:56;;;;;;;287.27;141.75;;;;;;;18.81;91.62;98288.72;5054953;28;20228;-73
2021/06/26 07:46:22;;;;;;;287.55;139.27;;;;;;;19.28;89.20;98287.13;5117683;27;21279;-74
2021/06/26 07:48:48;;;;;;;279.95;141.65;;;;;;;19.63;85.72;98286.38;5103277;28;20215;-73
2021/06/26 07:51:15;;;;;;;288.77;138.88;;;;;;;19.49;84.81;98279.44;5100939;27;20931;-74
2021/06/26 07:53:42;;;;;;;282.05;140.48;;;;;;;19.50;85.63;98274.97;5102823;28;20228;-73
2021/06/26 07:56:08;;;;;;;283.50;144.75;;;;;;;19.02;85.36;98273.97;5096978;28;20240;-75
2021/06/26 07:58:35;;;;;;;281.65;139.73;;;;;;;19.31;86.44;98271.03;5098860;28;20585;-74
2021/06/26 08:01:02;;;;;;;285.42;139.43;;;;;;;19.13;87.97;98267.06;5101940;27;20257;-73
2021/06/26 08:03:30;;;;;;;286.75;143.73;;;;;;;19.50;84.44;98264.38;5102269;28;20239;-74
2021/06/26 08:05:56;;;;;;;288.80;142.75;;;;;;;19.65;83.84;98253.53;5098771;28;20845;-75
2021/06/26 08:08:23;;;;;;;287.75;145.38;;;;;;;19.96;83.74;98255.69;5105493;28;20219;-73
2021/06/26 08:10:50;;;;;;;288.33;147.88;;;;;;;20.06;83.46;98251.41;5100953;28;20238;-73
2021/06/26 08:13:17;;;;;;;273.92;145.10;;;;;;;20.16;82.30;98247.13;5103104;28;20772;-73
2021/06/26 08:15:46;;;;;;;285.98;147.35;;;;;;;20.14;79.71;98250.81;5100560;27;20232;-73
2021/06/26 08:18:12;;;;;;;273.20;144.30;;;;;;;20.42;80.68;98238.97;5089463;28;20224;-74
2021/06/26 08:20:41;;;;;;;277.60;145.55;;;;;;;20.39;80.96;98239.19;5098614;27;20227;-73
2021/06/26 08:23:07;;;;;;;290.80;150.65;;;;;;;20.46;79.21;98248.34;5099895;28;20834;-73
2021/06/26 08:25:34;;;;;;;289.15;149.80;;;;;;;20.73;78.26;98233.91;5097948;28;20236;-74
2021/06/26 08:28:01;;;;;;;278.52;147.07;;;;;;;20.96;77.56;98235.59;5097055;28;20212;-73
2021/06/26 08:30:27;;;;;;;282.63;145.00;;;;;;;;;;5091940;28;20233;-73
2021/06/26 08:32:56;;;;;;;273.20;150.65;;;;;;;21.18;76.91;98233.88;5092301;28;20212;-73
2021/06/26 08:35:22;;;;;;;283.42;152.80;;;;;;;21.16;76.54;98230.50;5093009;27;20720;-73
2021/06/26 08:37:51;;;;;;;284.67;156.93;;;;;;;21.45;75.40;98222.00;5097585;28;20208;-72
2021/06/26 08:40:18;;;;;;;276.75;158.23;;;;;;;21.65;74.49;98221.22;5097958;28;20224;-73
2021/06/26 08:42:45;;;;;;;279.65;160.70;;;;;;;21.10;73.04;98221.25;5092796;28;20225;-73
2021/06/26 08:45:15;;;;;;;290.30;159.85;;;;;;;21.43;73.56;98227.41;5099334;27;20599;-72
2021/06/26 08:47:42;;;;;;;279.00;165.63;;;;;;;21.25;73.01;98213.00;5099621;27;20216;-73
2021/06/26 08:50:09;;;;;;;285.55;159.15;;;;;;;21.33;75.50;98222.00;5095488;28;20216;-72
2021/06/26 08:52:36;;;;;;;280.15;156.43;;;;;;;21.55;77.36;98215.81;5097054;28;20216;-76
2021/06/26 08:55:04;;;;;;;277.92;156.98;;;;;;;21.80;76.14;98215.56;5100041;28;20232;-76
2021/06/26 08:57:32;;;;;;;273.80;157.48;;;;;;;21.54;71.31;98213.28;5085030;28;20239;-73
2021/06/26 09:00:01;;;;;;;277.20;157.15;;;;;;;21.25;72.90;98218.31;5090676;28;20219;-73
2021/06/26 09:02:29;;;;;;;274.75;154.30;;;;;;;21.38;74.38;98219.81;5089448;28;20232;-73
2021/06/26 09:04:56;;;;;;;281.58;164.30;;;;;;;21.86;71.25;98209.78;5087340;28;20792;-73
2021/06/26 09:07:30;;;;;;;272.17;160.13;;;;;;;21.65;68.02;98213.25;5084952;28;20236;-73
2021/06/26 09:09:57;;;;;;;269.83;157.73;;;;;;;21.59;69.56;98208.44;5088844;28;20212;-73
2021/06/26 09:12:26;;;;;;;290.90;158.57;;;;;;;21.52;67.10;98200.16;5086345;28;20610;-75
2021/06/26 09:14:54;;;;;;;282.17;161.48;;;;;;;21.89;68.71;98198.88;5084796;28;20611;-73
2021/06/26 09:17:30;;;;;;;267.25;155.05;;;;;;;21.74;67.98;98204.53;5084843;28;20252;-73
2021/06/26 09:20:00;;;;;;;279.88;161.95;;;;;;;21.86;67.34;98196.50;5090495;28;20209;-74
2021/06/26 09:22:36;;;;;;;279.45;160.88;;;;;;;21.88;64.52;98199.84;5088943;28;20237;-74
2021/06/26 09:25:03;;;;;;;267.88;155.13;;;;;;;21.87;66.64;98198.16;5083892;28;20229;-73
2021/06/26 09:27:35;;;;;;;277.60;158.23;;;;;;;21.82;67.27;98205.69;5086625;28;20236;-73
2021/06/26 09:30:01;;;;;;;277.00;166.05;;;;;;;21.79;65.73;98200.63;5085117;28;20237;-73
2021/06/26 09:32:29;;;;;;;285.90;164.77;;;;;;;21.83;65.01;98202.06;5081841;28;20799;-74
2021/06/26 09:34:56;;;;;;;271.00;168.23;;;;;;;22.16;65.26;98202.81;5086509;28;20233;-73
2021/06/26 09:37:24;;;;;;;286.40;167.48;;;;;;;22.20;66.23;98193.59;5084548;28;20239;-73
2021/06/26 09:39:52;;;;;;;284.90;174.07;;;;;;;22.28;64.83;98193.84;5087491;28;20212;-73
2021/06/26 09:42:21;;;;;;;268.95;170.98;;;;;;;22.46;65.57;98197.56;5084287;28;20635;-73
2021/06/26 09:44:54;;;;;;;271.50;164.35;;;;;;;22.36;64.96;98196.66;5086330;28;20772;-73
2021/06/26 09:47:29;;;;;;;281.67;160.15;;;;;;;22.04;64.73;98192.28;5084642;28;20323;-73
2021/06/26 09:49:55;;;;;;;272.38;151.15;;;;;;;22.10;64.50;98193.56;5081948;28;20262;-73
2021/06/26 09:52:22;;;;;;;280.58;160.18;;;;;;;22.33;68.37;98189.81;5085903;28;20237;-74
2021/06/26 09:54:48;;;;;;;264.48;154.23;;;;;;;22.52;66.80;98185.56;5080752;28;20236;-73
2021/06/26 09:57:15;;;;;;;272.25;159.15;;;;;;;22.67;60.52;98181.53;5079770;28;20236;-73
2021/06/26 09:59:42;;;;;;;270.80;160.07;;;;;;;22.84;61.63;98180.03;5084149;28;20224;-74
2021/06/26 10:02:15;;;;;;;277.67;170.65;;;;;;;23.08;64.77;98186.84;5085197;28;20232;-73
2021/06/26 10:04:41;;;;;;;272.67;163.90;;;;;;;22.76;58.95;98179.91;5086298;28;20245;-74
2021/06/26 10:07:08;;;;;;;279.92;185.98;;;;;;;22.98;61.57;98178.00;5082009;28;20591;-73
2021/06/26 10:09:34;;;;;;;276.33;164.95;;;;;;;23.13;61.49;98179.31;5083052;28;20224;-73
2021/06/26 10:12:01;;;;;;;274.63;160.25;;;;;;;23.40;60.80;98183.13;5082617;28;20239;-73
2021/06/26 10:14:28;;;;;;;299.73;191.68;;;;;;;23.44;62.04;98173.88;5082328;28;20265;-73
2021/06/26 10:16:54;;;;;;;295.38;195.45;;;;;;;23.67;59.91;98180.59;5084410;28;20725;-73
2021/06/26 10:19:22;;;;;;;279.00;188.20;;;;;;;23.71;59.55;98177.63;5083812;28;20342;-73
2021/06/26 10:21:49;;;;;;;282.67;184.45;;;;;;;23.41;61.30;98174.97;5089142;27;20352;-73
2021/06/26 10:24:16;;;;;;;272.35;185.50;;;;;;;23.21;60.44;98174.13;5088994;28;20243;-74
2021/06/26 10:26:44;;;;;;;280.13;179.57;;;;;;;23.08;63.36;98176.22;5087679;28;20236;-73
2021/06/26 10:29:10;;;;;;;271.67;184.05;;;;;;;23.08;63.45;98179.69;5084621;28;20220;-73
2021/06/26 10:31:38;;;;;;;293.25;186.38;;;;;;;23.14;62.86;98170.34;5083596;28;20241;-74
2021/06/26 10:34:09;;;;;;;285.08;193.15;;;;;;;23.42;61.79;98173.16;5080678;28;20235;-73
2021/06/26 10:36:38;;;;;;;288.67;188.40;;;;;;;23.46;57.40;98177.22;5076257;28;20244;-73
2021/06/26 10:39:17;;;;;;;351.77;210.93;;;;;;;23.55;55.79;98168.41;5082259;28;20272;-74
2021/06/26 10:41:44;;;;;;;295.10;191.13;;;;;;;23.64;55.93;98170.22;5083591;28;20232;-74
2021/06/26 10:44:10;;;;;;;282.00;190.20;;;;;;;23.66;58.80;98162.91;5081998;28;20232;-74
2021/06/26 10:46:47;;;;;;;290.63;196.90;;;;;;;23.61;54.75;98164.31;5084806;28;20240;-73
2021/06/26 10:49:13;;;;;;;300.77;203.02;;;;;;;23.75;60.74;98155.91;5086029;28;20704;-74
2021/06/26 10:51:42;;;;;;;317.90;207.00;;;;;;;23.93;58.02;98158.72;5079207;28;20224;-74
2021/06/26 10:54:10;;;;;;;299.52;209.50;;;;;;;23.91;55.93;98155.31;5079970;28;20363;-74
2021/06/26 10:56:37;;;;;;;290.35;204.07;;;;;;;23.79;56.09;98151.13;5081019;28;20714;-73
2021/06/26 10:59:09;;;;;;;283.05;198.30;;;;;;;23.81;55.31;98154.53;5085671;28;20212;-74
2021/06/26 11:01:35;;;;;;;310.15;199.00;;;;;;;23.76;57.25;98162.91;5086507;28;20225;-74
2021/06/26 11:04:08;;;;;;;303.50;204.70;;;;;;;23.69;54.84;98161.78;5081554;28;20328;-73